createdAt,value
2022-10-05T00:02:23.095Z,1.02
2022-10-05T00:04:53.289Z,0.93
2022-10-05T00:07:21.762Z,0.80
2022-10-05T00:09:58.671Z,1.00
2022-10-05T00:12:27.211Z,1.33
2022-10-05T00:14:59.890Z,0.88
2022-10-05T00:17:29.083Z,0.70
2022-10-05T00:19:55.870Z,0.80
2022-10-05T00:22:33.164Z,1.27
2022-10-05T00:25:01.990Z,1.42
2022-10-05T00:27:34.164Z,1.00
2022-10-05T00:30:10.937Z,0.80
2022-10-05T00:32:37.416Z,1.17
2022-10-05T00:35:04.168Z,0.95
2022-10-05T00:37:30.675Z,1.15
2022-10-05T00:39:57.322Z,1.55
2022-10-05T00:42:38.688Z,0.93
2022-10-05T00:45:27.471Z,0.82
2022-10-05T00:48:19.725Z,0.77
2022-10-05T00:50:49.168Z,1.13
2022-10-05T00:53:39.424Z,1.05
2022-10-05T00:56:31.066Z,1.00
2022-10-05T00:59:12.435Z,1.38
2022-10-05T01:02:09.838Z,0.95
2022-10-05T01:05:07.576Z,0.90
2022-10-05T01:07:42.702Z,0.85
2022-10-05T01:10:27.445Z,1.02
2022-10-05T01:13:26.255Z,0.73
2022-10-05T01:16:03.767Z,1.08
2022-10-05T01:18:39.172Z,1.10
2022-10-05T01:21:24.629Z,1.10
2022-10-05T01:24:18.959Z,0.95
2022-10-05T01:27:23.728Z,1.10
2022-10-05T01:30:02.854Z,1.15
2022-10-05T01:32:41.108Z,1.08
2022-10-05T01:35:33.203Z,0.90
2022-10-05T01:38:11.621Z,0.85
2022-10-05T01:40:56.347Z,1.00
2022-10-05T01:46:07.054Z,1.08
2022-10-05T01:48:57.104Z,0.80
2022-10-05T01:51:45.884Z,0.85
2022-10-05T01:54:19.283Z,0.93
2022-10-05T01:57:19.765Z,0.97
2022-10-05T02:00:04.686Z,1.35
2022-10-05T02:02:54.532Z,0.77
2022-10-05T02:05:48.729Z,0.75
2022-10-05T02:08:24.250Z,1.20
2022-10-05T02:11:06.264Z,1.00
2022-10-05T02:13:41.422Z,1.10
2022-10-05T02:16:15.661Z,1.02
2022-10-05T02:21:14.896Z,1.23
2022-10-05T02:23:42.972Z,1.00
2022-10-05T02:26:11.835Z,0.95
2022-10-05T02:28:51.287Z,1.27
2022-10-05T02:31:23.975Z,1.45
2022-10-05T02:33:50.479Z,1.00
2022-10-05T02:36:23.078Z,1.10
2022-10-05T02:38:59.395Z,1.25
2022-10-05T02:41:42.061Z,1.75
2022-10-05T02:44:37.418Z,1.00
2022-10-05T02:47:09.789Z,1.00
2022-10-05T02:49:43.173Z,1.40
2022-10-05T02:52:26.849Z,1.03
2022-10-05T02:55:00.629Z,1.35
2022-10-05T02:57:32.770Z,0.90
2022-10-05T03:00:09.790Z,1.05
2022-10-05T03:03:06.407Z,1.25
2022-10-05T03:05:45.821Z,1.10
2022-10-05T03:08:39.949Z,1.20
2022-10-05T03:11:18.722Z,1.00
2022-10-05T03:14:09.983Z,1.05
2022-10-05T03:16:51.519Z,1.05
2022-10-05T03:19:33.701Z,1.00
2022-10-05T03:22:14.344Z,1.08
2022-10-05T03:25:05.994Z,1.08
2022-10-05T03:27:38.635Z,1.60
2022-10-05T03:30:13.451Z,1.60
2022-10-05T03:33:07.809Z,1.17
2022-10-05T03:35:58.021Z,1.70
2022-10-05T03:38:30.436Z,1.00
2022-10-05T03:41:12.512Z,1.00
2022-10-05T03:44:03.800Z,2.28
2022-10-05T03:46:47.442Z,1.23
2022-10-05T03:49:19.287Z,1.75
2022-10-05T03:51:51.298Z,1.02
2022-10-05T03:54:24.730Z,1.63
2022-10-05T03:57:03.236Z,1.37
2022-10-05T03:59:34.259Z,1.50
2022-10-05T04:02:05.501Z,1.35
2022-10-05T04:04:40.622Z,1.20
2022-10-05T04:07:25.785Z,1.52
2022-10-05T04:09:53.495Z,1.30
2022-10-05T04:12:33.108Z,1.17
2022-10-05T04:15:07.011Z,1.40
2022-10-05T04:17:42.395Z,1.20
2022-10-05T04:20:21.681Z,1.60
2022-10-05T04:23:04.516Z,1.70
2022-10-05T04:25:53.961Z,1.70
2022-10-05T04:28:32.413Z,2.25
2022-10-05T04:31:00.593Z,2.40
2022-10-05T04:33:27.409Z,2.03
2022-10-05T04:36:08.313Z,1.25
2022-10-05T04:38:48.622Z,1.60
2022-10-05T04:41:43.208Z,1.95
2022-10-05T04:44:46.140Z,1.42
2022-10-05T04:47:27.864Z,1.30
2022-10-05T04:50:21.982Z,1.23
2022-10-05T04:52:56.446Z,1.40
2022-10-05T04:58:27.653Z,1.23
2022-10-05T05:01:21.974Z,1.25
2022-10-05T05:04:06.443Z,0.98
2022-10-05T05:06:35.887Z,1.60
2022-10-05T05:09:27.234Z,1.30
2022-10-05T05:12:18.286Z,1.52
2022-10-05T05:15:15.697Z,1.40
2022-10-05T05:17:57.353Z,3.78
2022-10-05T05:20:59.137Z,1.77
2022-10-05T05:23:41.528Z,1.92
2022-10-05T05:26:34.511Z,1.40
2022-10-05T05:29:15.114Z,1.48
2022-10-05T05:32:17.498Z,1.33
2022-10-05T05:35:06.635Z,2.05
2022-10-05T05:37:38.844Z,1.55
2022-10-05T05:40:40.530Z,1.33
2022-10-05T05:43:19.347Z,1.48
2022-10-05T05:46:08.821Z,1.50
2022-10-05T05:48:41.425Z,1.50
2022-10-05T05:51:16.937Z,2.28
2022-10-05T05:54:20.189Z,2.00
2022-10-05T05:57:08.943Z,2.13
2022-10-05T05:59:41.496Z,2.30
2022-10-05T06:02:16.310Z,1.85
2022-10-05T06:05:09.740Z,1.60
2022-10-05T06:07:37.946Z,1.48
2022-10-05T06:10:28.265Z,2.03
2022-10-05T06:13:01.743Z,2.45
2022-10-05T06:15:38.588Z,2.10
2022-10-05T06:18:11.939Z,3.20
2022-10-05T06:20:49.326Z,2.20
2022-10-05T06:23:25.575Z,2.22
2022-10-05T06:26:13.151Z,2.95
2022-10-05T06:28:39.887Z,2.30
2022-10-05T06:31:41.786Z,2.75
2022-10-05T06:34:14.703Z,2.22
2022-10-05T06:36:50.638Z,2.30
2022-10-05T06:40:15.502Z,2.22
2022-10-05T06:43:16.447Z,1.83
2022-10-05T06:46:11.156Z,2.78
2022-10-05T06:48:44.661Z,2.08
2022-10-05T06:51:26.422Z,1.83
2022-10-05T06:53:52.859Z,2.28
2022-10-05T06:56:22.372Z,2.53
2022-10-05T06:59:05.790Z,2.33
2022-10-05T07:01:44.285Z,2.80
2022-10-05T07:04:27.757Z,2.42
2022-10-05T07:07:08.659Z,1.77
2022-10-05T07:09:48.752Z,2.45
2022-10-05T07:12:43.087Z,1.90
2022-10-05T07:15:30.361Z,2.15
2022-10-05T07:18:21.370Z,2.08
2022-10-05T07:21:09.291Z,1.85
2022-10-05T07:24:10.384Z,1.75
2022-10-05T07:26:46.343Z,1.60
2022-10-05T07:29:35.027Z,1.42
2022-10-05T07:32:12.097Z,1.40
2022-10-05T07:35:04.528Z,1.92
2022-10-05T07:37:54.901Z,1.40
2022-10-05T07:40:31.740Z,1.83
2022-10-05T07:43:07.570Z,1.88
2022-10-05T07:45:39.890Z,1.75
2022-10-05T07:48:12.278Z,1.63
2022-10-05T07:50:41.598Z,1.55
2022-10-05T07:53:24.705Z,1.70
2022-10-05T07:55:57.285Z,1.73
2022-10-05T07:58:39.803Z,1.70
2022-10-05T08:01:26.742Z,1.50
2022-10-05T08:04:08.166Z,1.80
2022-10-05T08:06:38.127Z,1.60
2022-10-05T10:28:52.306Z,1.45
2022-10-05T10:31:44.084Z,1.55
2022-10-05T10:34:57.044Z,1.70
2022-10-05T10:38:02.627Z,1.20
2022-10-05T10:41:09.131Z,1.02
2022-10-05T10:44:12.436Z,1.33
2022-10-05T10:46:53.878Z,1.05
2022-10-05T10:49:59.523Z,1.10
2022-10-05T10:52:48.010Z,1.00
2022-10-05T10:55:44.528Z,1.35
2022-10-05T11:01:25.271Z,1.38
2022-10-05T11:04:39.775Z,1.25
2022-10-05T11:07:36.942Z,1.13
2022-10-05T11:10:19.541Z,1.05
2022-10-05T11:12:52.312Z,1.00
2022-10-05T11:15:45.204Z,1.55
2022-10-05T11:18:27.919Z,1.30
2022-10-05T11:21:16.016Z,1.20
2022-10-05T11:24:17.734Z,1.38
2022-10-05T11:26:56.458Z,0.93
2022-10-05T11:30:04.281Z,1.15
2022-10-05T11:33:11.210Z,1.38
2022-10-05T11:36:01.836Z,1.65
2022-10-05T11:38:41.040Z,1.23
2022-10-05T11:41:44.309Z,2.00
2022-10-05T11:44:48.644Z,1.60
2022-10-05T11:47:32.167Z,1.42
2022-10-05T11:49:59.240Z,1.20
2022-10-05T11:52:55.759Z,1.15
2022-10-05T11:55:24.567Z,1.20
2022-10-05T11:57:56.422Z,0.98
2022-10-05T12:00:30.343Z,1.42
2022-10-05T12:03:21.687Z,1.05
2022-10-05T12:06:03.263Z,1.25
2022-10-05T12:08:54.221Z,1.05
2022-10-05T12:11:58.000Z,0.95
2022-10-05T12:14:33.451Z,1.13
2022-10-05T12:16:59.962Z,1.33
2022-10-05T12:19:36.672Z,1.20
2022-10-05T12:22:20.940Z,1.00
2022-10-05T12:25:25.569Z,1.30
2022-10-05T12:27:57.197Z,0.95
2022-10-05T12:30:32.089Z,1.20
2022-10-05T12:33:16.948Z,0.82
2022-10-05T12:35:56.816Z,0.95
2022-10-05T12:38:28.680Z,0.98
2022-10-05T12:41:04.494Z,0.90
2022-10-05T12:43:54.258Z,1.10
2022-10-05T12:46:31.743Z,1.10
2022-10-05T12:48:58.248Z,0.90
2022-10-05T12:51:37.343Z,0.90
2022-10-05T12:54:06.564Z,0.88
2022-10-05T12:56:58.106Z,1.08
2022-10-05T12:59:53.272Z,1.25
2022-10-05T13:02:39.167Z,0.90
2022-10-05T13:05:11.467Z,0.95
2022-10-05T13:08:09.063Z,1.40
2022-10-05T13:10:42.115Z,1.02
2022-10-05T13:13:34.202Z,0.60
2022-10-05T13:16:16.684Z,0.60
2022-10-05T13:18:44.316Z,0.90
2022-10-05T13:21:19.925Z,1.00
2022-10-05T13:24:14.601Z,0.80
2022-10-05T13:29:25.959Z,0.70
2022-10-05T13:32:26.998Z,1.00
2022-10-05T13:34:54.061Z,0.75
2022-10-05T13:37:43.320Z,0.68
2022-10-05T13:40:15.938Z,0.80
2022-10-05T13:42:53.099Z,0.80
2022-10-05T13:45:30.107Z,0.90
2022-10-05T13:47:59.720Z,1.15
2022-10-05T13:50:33.628Z,0.90
2022-10-05T13:53:18.383Z,0.88
2022-10-05T13:55:47.285Z,0.95
2022-10-05T13:58:44.934Z,0.98
2022-10-05T14:01:29.366Z,0.77
2022-10-05T14:04:20.536Z,0.93
2022-10-05T14:06:48.751Z,0.88
2022-10-05T14:09:31.855Z,0.90
2022-10-05T14:12:04.483Z,0.50
2022-10-05T14:14:45.355Z,0.80
2022-10-05T14:17:32.108Z,1.10
2022-10-05T14:20:02.904Z,0.65
2022-10-05T14:22:29.477Z,1.23
2022-10-05T14:25:03.136Z,0.70
2022-10-05T14:27:33.951Z,0.90
2022-10-05T14:30:03.208Z,1.00
2022-10-05T14:32:44.182Z,0.70
2022-10-05T14:35:10.611Z,0.90
2022-10-05T14:37:51.433Z,0.90
2022-10-05T14:40:26.007Z,0.80
2022-10-05T14:42:53.340Z,0.77
2022-10-05T14:45:21.906Z,0.70
2022-10-05T14:47:56.655Z,1.00
2022-10-05T14:50:29.721Z,0.70
2022-10-05T14:53:11.547Z,0.90
2022-10-05T14:55:50.689Z,1.00
2022-10-05T14:58:43.236Z,1.08
2022-10-05T15:01:28.114Z,0.70
2022-10-05T15:04:06.404Z,0.90
2022-10-05T15:06:58.526Z,0.85
2022-10-05T15:09:54.408Z,1.13
2022-10-05T15:12:59.925Z,0.70
2022-10-05T15:15:55.488Z,1.02
2022-10-05T15:18:44.992Z,1.00
2022-10-05T15:21:33.296Z,0.90
2022-10-05T15:24:13.299Z,0.90
2022-10-05T15:27:02.122Z,0.93
2022-10-05T15:29:36.172Z,0.70
2022-10-05T15:34:49.116Z,0.65
2022-10-05T15:37:31.952Z,1.00
2022-10-05T15:40:05.222Z,1.30
2022-10-05T15:42:38.387Z,1.92
2022-10-05T15:45:37.842Z,2.00
2022-10-05T15:48:24.490Z,1.15
2022-10-05T15:51:18.388Z,1.80
2022-10-05T15:53:44.824Z,1.30
2022-10-05T15:56:41.591Z,1.27
2022-10-05T15:59:18.367Z,1.30
2022-10-05T16:01:52.980Z,1.27
2022-10-05T16:04:27.829Z,1.75
2022-10-05T16:07:20.909Z,1.00
2022-10-05T16:10:21.413Z,1.15
2022-10-05T16:13:05.246Z,1.67
2022-10-05T16:15:42.627Z,2.20
2022-10-05T16:18:33.147Z,2.30
2022-10-05T16:21:14.693Z,1.25
2022-10-05T16:24:40.490Z,2.83
2022-10-05T16:27:20.713Z,1.10
2022-10-05T16:29:50.611Z,2.22
2022-10-05T16:32:30.517Z,1.85
2022-10-05T16:35:03.382Z,2.45
2022-10-05T16:37:48.810Z,2.65
2022-10-05T19:26:35.372Z,1.80
2022-10-05T19:29:08.209Z,2.72
2022-10-05T19:31:45.946Z,1.73
2022-10-05T19:34:38.175Z,2.03
2022-10-05T19:37:04.863Z,1.90
2022-10-05T19:39:36.101Z,3.15
2022-10-05T19:42:21.028Z,2.75
2022-10-05T19:45:01.756Z,2.40
2022-10-05T19:47:46.678Z,2.13
2022-10-05T19:50:19.605Z,2.22
2022-10-05T19:52:50.245Z,2.67
2022-10-05T19:55:24.282Z,1.73
2022-10-05T19:57:51.777Z,2.00
2022-10-05T20:00:38.520Z,2.13
2022-10-05T20:03:07.979Z,1.88
2022-10-05T20:05:34.788Z,2.15
2022-10-05T20:08:01.255Z,2.10
2022-10-05T20:10:29.362Z,2.00
2022-10-05T20:13:03.418Z,1.67
2022-10-05T20:15:49.781Z,2.40
2022-10-05T20:18:50.524Z,2.33
2022-10-05T20:21:36.375Z,1.80
2022-10-05T20:24:06.324Z,2.03
2022-10-05T20:27:00.454Z,1.92
2022-10-05T20:29:27.073Z,2.15
2022-10-05T20:31:53.610Z,2.30
2022-10-05T20:34:21.665Z,2.90
2022-10-05T20:36:48.811Z,2.53
2022-10-05T20:39:17.355Z,2.30
2022-10-05T20:41:45.308Z,1.73
2022-10-05T20:44:12.374Z,2.58
2022-10-05T20:46:41.708Z,2.25
2022-10-05T20:49:09.989Z,2.67
2022-10-05T20:51:40.182Z,2.72
2022-10-05T20:54:07.568Z,2.38
2022-10-05T20:56:33.997Z,2.30
2022-10-05T20:59:00.663Z,2.10
2022-10-05T21:01:27.692Z,2.72
2022-10-05T21:03:54.202Z,2.38
2022-10-05T21:06:28.109Z,3.17
2022-10-05T21:08:54.691Z,2.47
2022-10-05T21:11:21.309Z,2.97
2022-10-05T21:13:49.319Z,3.30
2022-10-05T21:16:18.689Z,3.03
2022-10-05T21:18:47.269Z,2.50
2022-10-05T21:21:15.139Z,3.22
2022-10-05T21:23:41.517Z,2.50
2022-10-05T21:26:10.305Z,3.03
2022-10-05T21:28:36.727Z,3.65
2022-10-05T21:31:03.132Z,2.60
2022-10-05T21:33:29.835Z,2.80
2022-10-05T21:35:56.593Z,3.83
2022-10-05T21:38:23.043Z,3.40
2022-10-05T21:40:49.767Z,3.28
2022-10-05T21:43:16.222Z,3.45
2022-10-05T21:45:43.269Z,3.22
2022-10-05T21:48:09.947Z,3.78
2022-10-05T21:50:37.659Z,3.75
2022-10-05T21:53:05.125Z,3.58
2022-10-05T21:55:32.507Z,3.03
2022-10-05T21:57:59.097Z,2.72
2022-10-05T22:00:25.438Z,3.38
2022-10-05T22:02:51.845Z,3.58
2022-10-05T22:05:18.224Z,3.63
2022-10-05T22:07:44.630Z,3.35
2022-10-05T22:10:11.000Z,3.47
2022-10-05T22:12:37.378Z,2.85
2022-10-05T22:15:06.250Z,3.05
2022-10-05T22:17:32.627Z,3.78
2022-10-05T22:19:59.229Z,4.95
2022-10-05T22:22:26.646Z,3.95
2022-10-05T22:24:53.597Z,4.18
2022-10-05T22:27:24.234Z,2.97
2022-10-05T22:29:51.305Z,3.45
2022-10-05T22:32:17.798Z,3.80
2022-10-05T22:34:44.192Z,3.20
2022-10-05T22:37:15.350Z,3.55
2022-10-05T22:39:42.078Z,4.10
2022-10-05T22:42:08.884Z,3.25
2022-10-05T22:44:35.536Z,3.75
2022-10-05T22:47:02.781Z,3.33
2022-10-05T22:49:29.139Z,3.33
2022-10-05T22:51:55.567Z,3.05
2022-10-05T22:54:25.250Z,3.20
2022-10-05T22:56:53.829Z,3.30
2022-10-05T22:59:20.237Z,3.33
2022-10-05T23:01:46.746Z,3.53
2022-10-05T23:04:13.177Z,3.58
2022-10-05T23:06:39.617Z,4.63
2022-10-05T23:09:05.974Z,4.05
2022-10-05T23:11:32.326Z,6.68
2022-10-05T23:13:59.897Z,7.65
2022-10-05T23:16:27.549Z,9.07
2022-10-05T23:18:54.762Z,10.40
2022-10-05T23:21:22.189Z,10.65
2022-10-05T23:23:51.475Z,10.68
2022-10-05T23:26:19.154Z,12.02
2022-10-05T23:28:49.046Z,11.20
2022-10-05T23:31:17.001Z,12.18
2022-10-05T23:33:43.558Z,12.70
2022-10-05T23:36:12.549Z,13.07
2022-10-05T23:38:38.920Z,11.75
2022-10-05T23:41:05.951Z,12.50
2022-10-05T23:43:35.722Z,13.00
2022-10-05T23:46:02.960Z,11.68
2022-10-05T23:48:30.466Z,12.70
2022-10-05T23:50:57.530Z,12.95
2022-10-05T23:53:23.994Z,13.68
2022-10-05T23:55:50.971Z,13.00
2022-10-05T23:58:17.617Z,13.40
